createdAt,value
2018-09-20T00:01:14.506Z,17.41
2018-09-20T00:03:42.981Z,17.37
2018-09-20T00:06:11.469Z,17.37
2018-09-20T00:08:39.899Z,17.36
2018-09-20T00:11:08.465Z,17.36
2018-09-20T00:13:36.965Z,17.34
2018-09-20T00:16:05.474Z,17.34
2018-09-20T00:18:34.020Z,17.34
2018-09-20T00:21:02.796Z,17.33
2018-09-20T00:23:31.688Z,17.29
2018-09-20T00:26:00.139Z,17.22
2018-09-20T00:28:28.761Z,17.17
2018-09-20T00:30:57.397Z,17.16
2018-09-20T00:33:25.881Z,17.14
2018-09-20T00:35:54.338Z,17.11
2018-09-20T00:38:22.842Z,17.11
2018-09-20T00:40:51.331Z,17.09
2018-09-20T00:43:19.784Z,17.10
2018-09-20T00:45:48.254Z,17.08
2018-09-20T00:48:16.762Z,17.07
2018-09-20T00:50:45.201Z,17.03
2018-09-20T00:53:13.717Z,17.01
2018-09-20T00:55:42.186Z,17.01
2018-09-20T00:58:10.698Z,17.03
2018-09-20T01:00:39.191Z,16.98
2018-09-20T01:03:07.658Z,16.92
2018-09-20T01:05:36.134Z,16.87
2018-09-20T01:08:06.682Z,16.79
2018-09-20T01:10:35.166Z,16.75
2018-09-20T01:13:03.865Z,16.74
2018-09-20T01:15:32.534Z,16.69
2018-09-20T01:18:01.018Z,16.71
2018-09-20T01:20:29.464Z,16.67
2018-09-20T01:22:57.962Z,16.62
2018-09-20T01:25:26.428Z,16.59
2018-09-20T01:27:54.926Z,16.58
2018-09-20T01:30:23.428Z,16.61
2018-09-20T01:32:51.885Z,16.58
2018-09-20T01:35:20.344Z,16.57
2018-09-20T01:37:48.839Z,16.59
2018-09-20T01:40:17.339Z,16.57
2018-09-20T01:42:45.813Z,16.59
2018-09-20T01:45:14.300Z,16.61
2018-09-20T01:47:42.769Z,16.61
2018-09-20T01:50:11.230Z,16.60
2018-09-20T01:52:39.738Z,16.54
2018-09-20T01:55:08.233Z,16.51
2018-09-20T01:57:36.705Z,16.44
2018-09-20T02:00:05.573Z,16.42
2018-09-20T02:02:34.209Z,16.37
2018-09-20T02:05:03.663Z,16.37
2018-09-20T02:07:32.204Z,16.31
2018-09-20T02:10:00.807Z,16.28
2018-09-20T02:12:29.481Z,16.27
2018-09-20T02:14:58.020Z,16.24
2018-09-20T02:17:26.524Z,16.20
2018-09-20T02:19:54.974Z,16.16
2018-09-20T02:22:23.438Z,16.15
2018-09-20T02:24:51.957Z,16.11
2018-09-20T02:27:20.405Z,16.07
2018-09-20T02:29:48.932Z,16.01
2018-09-20T02:32:17.365Z,16.07
2018-09-20T02:34:45.865Z,16.10
2018-09-20T02:37:14.313Z,16.08
2018-09-20T02:39:42.783Z,16.02
2018-09-20T02:42:11.285Z,15.99
2018-09-20T02:44:39.789Z,15.95
2018-09-20T02:47:08.307Z,15.95
2018-09-20T02:49:36.792Z,15.98
2018-09-20T02:52:05.350Z,15.99
2018-09-20T02:54:33.914Z,15.94
2018-09-20T02:57:03.030Z,15.91
2018-09-20T02:59:31.694Z,15.91
2018-09-20T03:02:00.238Z,15.96
2018-09-20T03:04:28.991Z,15.93
2018-09-20T03:06:57.485Z,15.91
2018-09-20T03:09:25.938Z,15.88
2018-09-20T03:11:54.525Z,15.85
2018-09-20T03:14:23.013Z,15.81
2018-09-20T03:16:51.484Z,15.80
2018-09-20T03:19:19.985Z,15.76
2018-09-20T03:21:48.442Z,15.75
2018-09-20T03:24:16.945Z,15.71
2018-09-20T03:26:45.459Z,15.75
2018-09-20T03:29:14.010Z,15.71
2018-09-20T03:31:42.462Z,15.67
2018-09-20T03:34:11.039Z,15.65
2018-09-20T03:36:39.554Z,15.62
2018-09-20T03:39:09.966Z,15.66
2018-09-20T03:41:38.493Z,15.63
2018-09-20T03:44:06.969Z,15.60
2018-09-20T03:46:35.493Z,15.55
2018-09-20T03:49:04.769Z,15.56
2018-09-20T03:51:33.427Z,15.56
2018-09-20T03:54:02.202Z,15.50
2018-09-20T03:56:30.641Z,15.53
2018-09-20T03:58:59.133Z,15.58
2018-09-20T04:01:27.650Z,15.58
2018-09-20T04:03:56.200Z,15.59
2018-09-20T04:06:24.753Z,15.62
2018-09-20T04:08:53.298Z,15.62
2018-09-20T04:11:21.929Z,15.60
2018-09-20T04:13:50.447Z,15.65
2018-09-20T04:16:18.991Z,15.66
2018-09-20T04:18:47.456Z,15.64
2018-09-20T04:21:29.870Z,15.64
2018-09-20T04:23:58.675Z,15.60
2018-09-20T04:26:27.377Z,15.56
2018-09-20T04:28:55.848Z,15.52
2018-09-20T04:31:24.983Z,15.52
2018-09-20T04:33:53.497Z,15.48
2018-09-20T04:36:21.973Z,15.46
2018-09-20T04:38:50.535Z,15.44
2018-09-20T04:41:19.209Z,15.44
2018-09-20T04:43:47.738Z,15.43
2018-09-20T04:46:16.334Z,15.42
2018-09-20T04:48:44.849Z,15.40
2018-09-20T04:51:13.361Z,15.41
2018-09-20T04:53:41.826Z,15.41
2018-09-20T04:56:10.388Z,15.39
2018-09-20T04:58:38.930Z,15.38
2018-09-20T05:01:07.651Z,15.34
2018-09-20T05:03:37.158Z,15.30
2018-09-20T05:06:06.045Z,15.28
2018-09-20T05:08:34.722Z,15.35
2018-09-20T05:11:03.806Z,15.35
2018-09-20T05:13:32.734Z,15.35
2018-09-20T05:16:01.225Z,15.33
2018-09-20T05:18:29.955Z,15.38
2018-09-20T05:20:58.391Z,15.38
2018-09-20T05:23:26.924Z,15.40
2018-09-20T05:25:55.452Z,15.43
2018-09-20T05:28:23.962Z,15.47
2018-09-20T05:30:52.430Z,15.52
2018-09-20T05:33:20.996Z,15.53
2018-09-20T05:35:49.499Z,15.59
2018-09-20T05:38:17.989Z,15.64
2018-09-20T05:40:46.518Z,15.66
2018-09-20T05:43:15.109Z,15.70
2018-09-20T05:45:43.611Z,15.79
2018-09-20T05:48:12.131Z,15.84
2018-09-20T05:50:40.612Z,15.88
2018-09-20T05:53:09.262Z,15.88
2018-09-20T05:55:37.786Z,15.88
2018-09-20T05:58:06.505Z,15.89
2018-09-20T06:00:35.350Z,15.94
2018-09-20T06:03:04.298Z,16.00
2018-09-20T06:05:33.070Z,16.05
2018-09-20T06:08:01.936Z,16.15
2018-09-20T06:10:30.538Z,16.22
2018-09-20T06:12:59.189Z,16.26
2018-09-20T06:15:27.662Z,16.35
2018-09-20T06:17:56.141Z,16.42
2018-09-20T06:20:24.601Z,16.49
2018-09-20T06:22:53.192Z,16.58
2018-09-20T06:25:21.671Z,16.64
2018-09-20T06:27:50.144Z,16.75
2018-09-20T06:30:18.594Z,16.83
2018-09-20T06:32:47.184Z,16.89
2018-09-20T06:35:15.739Z,16.97
2018-09-20T06:37:44.283Z,17.10
2018-09-20T06:40:12.714Z,17.23
2018-09-20T06:42:41.249Z,17.35
2018-09-20T06:45:11.212Z,17.44
2018-09-20T06:47:39.899Z,17.61
2018-09-20T06:50:08.490Z,17.70
2018-09-20T06:52:37.245Z,17.77
2018-09-20T06:55:05.871Z,17.83
2018-09-20T06:57:34.598Z,17.96
2018-09-20T07:00:04.505Z,18.09
2018-09-20T07:02:33.569Z,18.18
2018-09-20T07:05:03.011Z,18.26
2018-09-20T07:07:31.746Z,18.38
2018-09-20T07:10:00.627Z,18.49
2018-09-20T07:12:29.703Z,18.61
2018-09-20T07:14:58.706Z,18.71
2018-09-20T07:17:27.482Z,18.83
2018-09-20T07:19:56.111Z,18.93
2018-09-20T07:22:24.638Z,19.09
2018-09-20T07:24:53.270Z,19.25
2018-09-20T07:27:21.770Z,19.37
2018-09-20T07:29:50.421Z,19.47
2018-09-20T07:32:19.003Z,19.55
2018-09-20T07:34:47.814Z,19.67
2018-09-20T07:37:16.438Z,19.78
2018-09-20T07:39:45.132Z,19.83
2018-09-20T07:42:13.633Z,19.92
2018-09-20T07:44:42.251Z,20.03
2018-09-20T07:47:10.871Z,20.22
2018-09-20T07:49:39.450Z,20.39
2018-09-20T07:52:07.974Z,20.56
2018-09-20T07:54:36.582Z,20.71
2018-09-20T07:57:06.231Z,20.83
2018-09-20T07:59:35.034Z,20.99
2018-09-20T08:02:04.133Z,21.12
2018-09-20T08:04:32.852Z,21.24
2018-09-20T08:07:01.839Z,21.36
2018-09-20T08:09:30.990Z,21.54
2018-09-20T08:11:59.512Z,21.69
2018-09-20T08:14:28.123Z,21.87
2018-09-20T08:16:56.657Z,21.98
2018-09-20T08:19:25.134Z,22.10
2018-09-20T08:21:53.747Z,22.21
2018-09-20T08:24:22.613Z,22.30
2018-09-20T08:26:51.122Z,22.44
2018-09-20T08:29:19.670Z,22.52
2018-09-20T08:31:48.137Z,22.64
2018-09-20T08:34:16.628Z,22.66
2018-09-20T08:36:45.108Z,22.88
2018-09-20T08:39:13.769Z,23.07
2018-09-20T08:41:42.280Z,23.10
2018-09-20T08:44:10.732Z,23.18
2018-09-20T08:46:39.241Z,23.44
2018-09-20T08:49:07.709Z,23.55
2018-09-20T08:51:36.350Z,23.56
2018-09-20T08:54:05.170Z,23.73
2018-09-20T08:56:33.896Z,23.85
2018-09-20T08:59:02.570Z,24.09
2018-09-20T09:01:31.053Z,24.20
2018-09-20T09:03:59.518Z,24.34
2018-09-20T09:06:28.005Z,24.39
2018-09-20T09:08:56.538Z,24.49
2018-09-20T09:11:25.116Z,24.58
2018-09-20T09:13:54.582Z,24.73
2018-09-20T09:16:23.122Z,24.94
2018-09-20T09:18:51.653Z,24.99
2018-09-20T09:21:20.149Z,25.07
2018-09-20T09:23:48.614Z,25.29
2018-09-20T09:26:17.085Z,25.47
2018-09-20T09:28:45.751Z,25.72
2018-09-20T09:31:14.232Z,25.99
2018-09-20T09:33:42.653Z,26.38
2018-09-20T09:36:11.131Z,26.77
2018-09-20T09:38:39.678Z,27.43
2018-09-20T09:41:08.306Z,28.12
2018-09-20T09:43:36.788Z,28.60
2018-09-20T09:46:05.390Z,28.78
2018-09-20T09:48:34.106Z,28.91
2018-09-20T09:51:03.043Z,29.32
2018-09-20T09:53:31.511Z,29.82
2018-09-20T09:55:59.998Z,30.29
2018-09-20T09:58:28.470Z,30.91
2018-09-20T10:00:56.942Z,31.61
2018-09-20T10:03:25.417Z,31.95
2018-09-20T10:05:53.922Z,32.23
2018-09-20T10:08:22.364Z,32.32
2018-09-20T10:10:50.901Z,32.17
2018-09-20T10:13:19.413Z,32.28
2018-09-20T10:15:47.970Z,32.89
2018-09-20T10:18:16.542Z,33.38
2018-09-20T10:20:45.125Z,33.24
2018-09-20T10:23:13.587Z,33.46
2018-09-20T10:25:42.064Z,33.92
2018-09-20T10:28:10.704Z,34.16
2018-09-20T10:30:39.242Z,34.54
2018-09-20T10:33:07.775Z,34.42
2018-09-20T10:35:36.283Z,34.84
2018-09-20T10:38:05.070Z,34.77
2018-09-20T10:40:33.690Z,34.92
2018-09-20T10:43:02.308Z,35.02
2018-09-20T10:45:30.858Z,35.38
2018-09-20T10:47:59.334Z,35.53
2018-09-20T10:50:27.812Z,35.26
2018-09-20T10:52:56.314Z,35.57
2018-09-20T10:55:24.785Z,36.23
2018-09-20T10:57:53.317Z,36.57
2018-09-20T11:00:21.868Z,36.45
2018-09-20T11:02:50.485Z,36.14
2018-09-20T11:05:19.102Z,36.94
2018-09-20T11:07:47.596Z,37.06
2018-09-20T11:10:16.075Z,37.08
2018-09-20T11:12:44.586Z,37.19
2018-09-20T11:15:13.138Z,37.44
2018-09-20T11:17:41.727Z,37.17
2018-09-20T11:20:10.235Z,37.52
2018-09-20T11:22:38.768Z,38.10
2018-09-20T11:25:07.322Z,38.27
2018-09-20T11:27:35.986Z,38.63
2018-09-20T11:30:04.759Z,38.97
2018-09-20T11:32:33.526Z,38.77
2018-09-20T11:35:02.188Z,39.44
2018-09-20T11:37:30.730Z,39.50
2018-09-20T11:39:59.294Z,39.73
2018-09-20T11:42:27.846Z,39.94
2018-09-20T11:44:56.410Z,40.47
2018-09-20T11:47:25.827Z,40.45
2018-09-20T11:49:54.421Z,41.42
2018-09-20T11:52:23.194Z,41.63
2018-09-20T11:54:51.736Z,41.90
2018-09-20T11:57:20.279Z,42.39
2018-09-20T11:59:48.786Z,41.03
2018-09-20T12:02:17.346Z,41.82
2018-09-20T12:04:45.874Z,41.21
2018-09-20T12:07:14.366Z,41.12
2018-09-20T12:09:42.910Z,41.17
2018-09-20T12:12:11.406Z,40.78
2018-09-20T12:14:39.935Z,41.59
2018-09-20T12:17:08.347Z,42.13
2018-09-20T12:19:36.969Z,42.17
2018-09-20T12:22:05.585Z,41.82
2018-09-20T12:24:34.165Z,42.79
2018-09-20T12:27:03.165Z,43.07
2018-09-20T12:29:31.757Z,42.80
2018-09-20T12:32:00.405Z,44.11
2018-09-20T12:34:28.870Z,43.53
2018-09-20T12:36:57.315Z,44.85
2018-09-20T12:39:25.863Z,45.09
2018-09-20T12:41:54.366Z,45.16
2018-09-20T12:44:22.890Z,45.12
2018-09-20T12:46:51.375Z,44.84
2018-09-20T12:49:19.950Z,45.13
2018-09-20T12:51:48.429Z,45.35
2018-09-20T12:54:17.050Z,45.96
2018-09-20T12:56:45.573Z,46.64
2018-09-20T12:59:14.128Z,45.40
2018-09-20T13:01:42.790Z,45.49
2018-09-20T13:04:11.294Z,44.82
2018-09-20T13:06:39.813Z,43.84
2018-09-20T13:09:09.805Z,44.20
2018-09-20T13:11:38.453Z,44.48
2018-09-20T13:14:06.942Z,45.44
2018-09-20T13:16:35.434Z,46.25
2018-09-20T13:19:04.365Z,46.68
2018-09-20T13:21:33.000Z,46.30
2018-09-20T13:24:01.584Z,46.45
2018-09-20T13:26:30.217Z,47.00
2018-09-20T13:28:58.756Z,47.48
2018-09-20T13:31:27.245Z,47.28
2018-09-20T13:33:55.781Z,47.02
2018-09-20T13:36:24.398Z,47.10
2018-09-20T13:38:52.957Z,47.20
2018-09-20T13:41:21.517Z,45.72
2018-09-20T13:43:50.077Z,46.89
2018-09-20T13:46:18.566Z,47.54
2018-09-20T13:48:47.327Z,48.77
2018-09-20T13:51:15.799Z,47.82
2018-09-20T13:53:44.262Z,48.92
2018-09-20T13:56:12.793Z,48.71
2018-09-20T13:58:46.482Z,47.54
2018-09-20T14:01:15.134Z,48.38
2018-09-20T14:03:43.673Z,47.12
2018-09-20T14:06:12.221Z,48.02
2018-09-20T14:08:40.867Z,47.43
2018-09-20T14:11:09.378Z,47.45
2018-09-20T14:13:37.869Z,47.18
2018-09-20T14:16:06.386Z,47.72
2018-09-20T14:18:34.928Z,47.92
2018-09-20T14:21:03.698Z,47.51
2018-09-20T14:23:32.765Z,48.40
2018-09-20T14:26:01.422Z,47.81
2018-09-20T14:28:29.965Z,48.57
2018-09-20T14:30:58.471Z,48.35
2018-09-20T14:33:26.906Z,47.33
2018-09-20T14:35:55.398Z,46.66
2018-09-20T14:38:23.936Z,47.51
2018-09-20T14:40:52.807Z,48.05
2018-09-20T14:43:21.613Z,48.19
2018-09-20T14:45:50.473Z,47.42
2018-09-20T14:48:18.962Z,48.02
2018-09-20T14:50:47.451Z,47.71
2018-09-20T14:53:16.022Z,48.38
2018-09-20T14:55:44.458Z,47.95
2018-09-20T14:58:13.046Z,49.25
2018-09-20T15:00:41.538Z,48.27
2018-09-20T15:03:10.074Z,48.82
2018-09-20T15:05:38.582Z,47.41
2018-09-20T15:08:07.182Z,47.06
2018-09-20T15:10:35.814Z,47.01
2018-09-20T15:13:04.567Z,47.75
2018-09-20T15:15:33.084Z,47.43
2018-09-20T15:18:01.669Z,47.32
2018-09-20T15:20:30.139Z,47.41
2018-09-20T15:22:58.640Z,48.00
2018-09-20T15:25:27.334Z,48.33
2018-09-20T15:27:55.924Z,48.31
2018-09-20T15:30:24.458Z,48.00
2018-09-20T15:32:53.107Z,47.88
2018-09-20T15:35:21.622Z,46.89
2018-09-20T15:37:50.119Z,47.58
2018-09-20T15:40:18.646Z,46.77
2018-09-20T15:42:47.181Z,46.01
2018-09-20T15:45:15.660Z,46.24
2018-09-20T15:47:44.210Z,45.52
2018-09-20T15:50:12.750Z,45.17
2018-09-20T15:52:41.263Z,44.79
2018-09-20T15:55:09.797Z,44.75
2018-09-20T15:57:38.585Z,44.64
2018-09-20T16:00:07.322Z,44.79
2018-09-20T16:02:36.002Z,44.38
2018-09-20T16:05:05.037Z,44.08
2018-09-20T16:07:33.848Z,44.35
2018-09-20T16:10:02.508Z,43.80
2018-09-20T16:12:31.017Z,44.06
2018-09-20T16:14:59.629Z,42.78
2018-09-20T16:17:28.353Z,42.36
2018-09-20T16:19:57.062Z,42.15
2018-09-20T16:22:25.535Z,42.62
2018-09-20T16:24:54.292Z,42.76
2018-09-20T16:27:22.772Z,42.64
2018-09-20T16:34:21.858Z,42.34
2018-09-20T16:37:04.871Z,39.93
2018-09-20T16:39:35.115Z,40.09
2018-09-20T16:42:07.018Z,39.26
2018-09-20T16:44:35.681Z,38.49
2018-09-20T16:47:04.453Z,38.62
2018-09-20T16:49:33.043Z,38.06
2018-09-20T16:52:01.742Z,37.25
2018-09-20T16:54:30.269Z,35.20
2018-09-20T16:56:58.914Z,33.60
2018-09-20T16:59:27.454Z,32.62
2018-09-20T17:01:56.100Z,31.83
2018-09-20T17:04:24.624Z,31.00
2018-09-20T17:06:53.174Z,30.32
2018-09-20T17:09:21.745Z,29.81
2018-09-20T17:11:50.375Z,29.31
2018-09-20T17:14:18.898Z,28.95
2018-09-20T17:16:47.512Z,28.68
2018-09-20T17:19:16.120Z,28.34
2018-09-20T17:21:44.629Z,28.10
2018-09-20T17:24:13.102Z,27.83
2018-09-20T17:26:41.538Z,27.61
2018-09-20T17:29:10.269Z,27.40
2018-09-20T17:31:38.718Z,27.12
2018-09-20T17:34:07.471Z,26.93
2018-09-20T17:36:36.393Z,26.78
2018-09-20T17:39:09.221Z,26.64
2018-09-20T17:41:38.697Z,26.40
2018-09-20T17:44:09.324Z,26.26
2018-09-20T17:46:37.838Z,26.18
2018-09-20T17:49:06.588Z,25.99
2018-09-20T17:51:35.398Z,25.91
2018-09-20T17:54:04.318Z,25.87
2018-09-20T17:56:33.486Z,25.89
2018-09-20T17:59:02.857Z,25.79
2018-09-20T18:01:31.469Z,25.75
2018-09-20T18:04:00.206Z,25.73
2018-09-20T18:06:28.815Z,25.59
2018-09-20T18:08:57.338Z,25.39
2018-09-20T18:11:25.826Z,25.19
2018-09-20T18:13:55.393Z,25.04
2018-09-20T18:16:24.015Z,24.88
2018-09-20T18:18:52.542Z,24.75
2018-09-20T18:21:21.030Z,24.60
2018-09-20T18:23:49.762Z,24.48
2018-09-20T18:26:18.332Z,24.36
2018-09-20T18:28:46.778Z,24.24
2018-09-20T18:31:15.674Z,24.16
2018-09-20T18:33:44.323Z,24.10
2018-09-20T18:36:13.105Z,24.05
2018-09-20T18:38:41.566Z,23.99
2018-09-20T18:41:10.187Z,23.98
2018-09-20T18:43:38.734Z,23.91
2018-09-20T18:46:07.330Z,23.79
2018-09-20T18:48:36.016Z,23.68
2018-09-20T18:51:05.567Z,23.51
2018-09-20T18:53:34.126Z,23.44
2018-09-20T18:56:02.909Z,23.39
2018-09-20T18:58:31.349Z,23.26
2018-09-20T19:01:00.068Z,23.19
2018-09-20T19:03:28.506Z,23.12
2018-09-20T19:05:57.011Z,23.04
2018-09-20T19:08:25.446Z,23.02
2018-09-20T19:10:53.914Z,22.93
2018-09-20T19:13:22.421Z,22.84
2018-09-20T19:15:50.929Z,22.70
2018-09-20T19:18:19.433Z,22.58
2018-09-20T19:20:48.292Z,22.54
2018-09-20T19:23:16.807Z,22.44
2018-09-20T19:25:45.357Z,22.39
2018-09-20T19:28:14.154Z,22.38
2018-09-20T19:30:42.621Z,22.32
2018-09-20T19:33:11.194Z,22.23
2018-09-20T19:35:39.695Z,22.14
2018-09-20T19:38:08.207Z,22.07
2018-09-20T19:40:36.790Z,22.03
2018-09-20T19:43:41.520Z,21.98
2018-09-20T19:46:09.953Z,21.85
2018-09-20T19:48:38.454Z,21.81
2018-09-20T19:51:06.957Z,21.82
2018-09-20T19:53:35.766Z,21.77
2018-09-20T19:56:05.057Z,21.70
2018-09-20T19:58:33.693Z,21.70
2018-09-20T20:01:02.288Z,21.68
2018-09-20T20:03:30.861Z,21.64
2018-09-20T20:05:59.470Z,21.56
2018-09-20T20:08:27.982Z,21.51
2018-09-20T20:10:56.424Z,21.38
2018-09-20T20:13:24.913Z,21.33
2018-09-20T20:15:53.449Z,21.27
2018-09-20T20:18:21.975Z,21.26
2018-09-20T20:20:50.460Z,21.25
2018-09-20T20:23:19.174Z,21.22
2018-09-20T20:25:47.610Z,21.18
2018-09-20T20:28:16.127Z,21.06
2018-09-20T20:30:44.606Z,21.06
2018-09-20T20:33:13.078Z,21.01
2018-09-20T20:35:41.579Z,21.00
2018-09-20T20:38:10.087Z,20.96
2018-09-20T20:40:38.647Z,20.92
2018-09-20T20:43:07.120Z,20.86
2018-09-20T20:45:35.679Z,20.81
2018-09-20T20:48:04.868Z,20.73
2018-09-20T20:50:33.393Z,20.65
2018-09-20T20:53:02.003Z,20.65
2018-09-20T20:55:30.549Z,20.73
2018-09-20T20:57:59.014Z,20.68
2018-09-20T21:00:27.495Z,20.59
2018-09-20T21:02:56.010Z,20.51
2018-09-20T21:05:24.490Z,20.48
2018-09-20T21:07:52.914Z,20.43
2018-09-20T21:10:21.418Z,20.39
2018-09-20T21:12:49.922Z,20.31
2018-09-20T21:15:18.625Z,20.23
2018-09-20T21:17:47.084Z,20.12
2018-09-20T21:20:15.566Z,20.04
2018-09-20T21:22:44.038Z,20.03
2018-09-20T21:25:12.617Z,20.00
2018-09-20T21:27:41.173Z,19.91
2018-09-20T21:30:09.709Z,19.88
2018-09-20T21:32:38.194Z,19.83
2018-09-20T21:35:06.766Z,19.83
2018-09-20T21:37:35.497Z,19.75
2018-09-20T21:40:04.602Z,19.75
2018-09-20T21:42:33.034Z,19.70
2018-09-20T21:45:01.580Z,19.62
2018-09-20T21:47:30.068Z,19.52
2018-09-20T21:49:58.610Z,19.46
2018-09-20T21:52:27.150Z,19.40
2018-09-20T21:54:55.636Z,19.36
2018-09-20T21:57:24.125Z,19.30
2018-09-20T21:59:52.619Z,19.25
2018-09-20T22:02:26.261Z,19.22
2018-09-20T22:04:55.694Z,19.24
2018-09-20T22:07:24.156Z,19.28
2018-09-20T22:09:52.703Z,19.27
2018-09-20T22:12:21.226Z,19.20
2018-09-20T22:14:49.722Z,19.17
2018-09-20T22:17:18.198Z,19.14
2018-09-20T22:19:46.947Z,19.11
2018-09-20T22:22:15.454Z,19.01
2018-09-20T22:24:43.950Z,18.96
2018-09-20T22:27:12.419Z,18.93
2018-09-20T22:29:40.951Z,18.85
2018-09-20T22:32:09.410Z,18.82
2018-09-20T22:34:37.863Z,18.78
2018-09-20T22:37:06.749Z,18.70
2018-09-20T22:39:35.362Z,18.63
2018-09-20T22:42:04.042Z,18.58
2018-09-20T22:44:32.556Z,18.51
2018-09-20T22:47:01.009Z,18.48
2018-09-20T22:49:29.520Z,18.42
2018-09-20T22:51:57.974Z,18.39
2018-09-20T22:54:26.410Z,18.36
2018-09-20T22:56:55.014Z,18.37
2018-09-20T22:59:23.493Z,18.40
2018-09-20T23:01:52.006Z,18.39
2018-09-20T23:04:20.469Z,18.33
2018-09-20T23:06:49.232Z,18.28
2018-09-20T23:09:17.745Z,18.27
2018-09-20T23:11:46.211Z,18.24
2018-09-20T23:14:14.719Z,18.19
2018-09-20T23:16:43.242Z,18.17
2018-09-20T23:19:11.752Z,18.14
2018-09-20T23:21:40.345Z,18.14
2018-09-20T23:24:08.833Z,18.09
2018-09-20T23:26:37.351Z,18.06
2018-09-20T23:29:05.929Z,18.00
2018-09-20T23:31:34.510Z,17.94
2018-09-20T23:34:03.144Z,17.92
2018-09-20T23:36:31.671Z,17.90
2018-09-20T23:39:00.167Z,17.81
2018-09-20T23:41:28.770Z,17.77
2018-09-20T23:43:57.173Z,17.74
2018-09-20T23:46:25.681Z,17.68
2018-09-20T23:48:54.155Z,17.70
2018-09-20T23:51:22.602Z,17.64
2018-09-20T23:53:51.112Z,17.60
2018-09-20T23:56:19.741Z,17.57
2018-09-20T23:58:48.198Z,17.57
